sensor_id;sensor_type;location;lat;lon;timestamp;temperature;humidity
15341;DHT22;7770;52.158;5.372;2023-04-29T00:01:59;9.70;99.90
15341;DHT22;7770;52.158;5.372;2023-04-29T00:04:45;9.70;99.90
15341;DHT22;7770;52.158;5.372;2023-04-29T00:07:31;9.70;99.90
15341;DHT22;7770;52.158;5.372;2023-04-29T00:10:18;9.70;99.90
15341;DHT22;7770;52.158;5.372;2023-04-29T00:13:04;9.80;99.90
15341;DHT22;7770;52.158;5.372;2023-04-29T00:15:50;9.70;99.90
15341;DHT22;7770;52.158;5.372;2023-04-29T00:18:36;9.70;99.90
15341;DHT22;7770;52.158;5.372;2023-04-29T00:21:22;9.70;99.90
15341;DHT22;7770;52.158;5.372;2023-04-29T00:24:08;9.80;99.90
15341;DHT22;7770;52.158;5.372;2023-04-29T00:26:54;9.80;99.90
15341;DHT22;7770;52.158;5.372;2023-04-29T00:29:40;9.80;99.90
15341;DHT22;7770;52.158;5.372;2023-04-29T00:32:26;9.70;99.90
15341;DHT22;7770;52.158;5.372;2023-04-29T00:35:12;9.80;99.90
15341;DHT22;7770;52.158;5.372;2023-04-29T00:37:58;9.70;99.90
15341;DHT22;7770;52.158;5.372;2023-04-29T00:40:44;9.70;99.90
15341;DHT22;7770;52.158;5.372;2023-04-29T00:43:30;9.80;99.90
15341;DHT22;7770;52.158;5.372;2023-04-29T00:46:17;9.80;99.90
15341;DHT22;7770;52.158;5.372;2023-04-29T00:49:03;9.80;99.90
15341;DHT22;7770;52.158;5.372;2023-04-29T00:51:49;9.70;99.90
15341;DHT22;7770;52.158;5.372;2023-04-29T00:54:36;9.70;99.90
15341;DHT22;7770;52.158;5.372;2023-04-29T00:57:22;9.70;99.90
15341;DHT22;7770;52.158;5.372;2023-04-29T01:00:08;9.70;99.90
15341;DHT22;7770;52.158;5.372;2023-04-29T01:02:55;9.70;99.90
15341;DHT22;7770;52.158;5.372;2023-04-29T01:05:44;9.70;99.90
15341;DHT22;7770;52.158;5.372;2023-04-29T01:08:45;9.70;99.90
15341;DHT22;7770;52.158;5.372;2023-04-29T01:11:54;9.70;99.90
15341;DHT22;7770;52.158;5.372;2023-04-29T01:15:22;9.60;99.90
15341;DHT22;7770;52.158;5.372;2023-04-29T01:18:26;9.70;99.90
15341;DHT22;7770;52.158;5.372;2023-04-29T01:21:15;9.70;99.90
15341;DHT22;7770;52.158;5.372;2023-04-29T01:24:01;9.70;99.90
15341;DHT22;7770;52.158;5.372;2023-04-29T01:27:05;9.60;99.90
15341;DHT22;7770;52.158;5.372;2023-04-29T01:30:31;9.60;99.90
15341;DHT22;7770;52.158;5.372;2023-04-29T01:33:40;9.60;99.90
15341;DHT22;7770;52.158;5.372;2023-04-29T01:36:43;9.60;99.90
15341;DHT22;7770;52.158;5.372;2023-04-29T01:39:45;9.60;99.90
15341;DHT22;7770;52.158;5.372;2023-04-29T01:43:01;9.60;99.90
15341;DHT22;7770;52.158;5.372;2023-04-29T01:45:48;9.60;99.90
15341;DHT22;7770;52.158;5.372;2023-04-29T01:48:36;9.60;99.90
15341;DHT22;7770;52.158;5.372;2023-04-29T01:51:22;9.60;99.90
15341;DHT22;7770;52.158;5.372;2023-04-29T01:54:08;9.60;99.90
15341;DHT22;7770;52.158;5.372;2023-04-29T01:56:55;9.60;99.90
15341;DHT22;7770;52.158;5.372;2023-04-29T01:59:42;9.60;99.90
15341;DHT22;7770;52.158;5.372;2023-04-29T02:02:27;9.60;99.90
15341;DHT22;7770;52.158;5.372;2023-04-29T02:05:14;9.70;99.90
15341;DHT22;7770;52.158;5.372;2023-04-29T02:08:00;9.60;99.90
15341;DHT22;7770;52.158;5.372;2023-04-29T02:10:57;9.60;99.90
15341;DHT22;7770;52.158;5.372;2023-04-29T02:13:43;9.70;99.90
15341;DHT22;7770;52.158;5.372;2023-04-29T02:16:29;9.70;99.90
15341;DHT22;7770;52.158;5.372;2023-04-29T02:19:15;9.70;99.90
15341;DHT22;7770;52.158;5.372;2023-04-29T02:22:01;9.70;99.90
15341;DHT22;7770;52.158;5.372;2023-04-29T02:24:48;9.70;99.90
15341;DHT22;7770;52.158;5.372;2023-04-29T02:27:34;9.70;99.90
15341;DHT22;7770;52.158;5.372;2023-04-29T02:30:20;9.70;99.90
15341;DHT22;7770;52.158;5.372;2023-04-29T02:33:08;9.70;99.90
15341;DHT22;7770;52.158;5.372;2023-04-29T02:35:54;9.70;99.90
15341;DHT22;7770;52.158;5.372;2023-04-29T02:38:40;9.70;99.90
15341;DHT22;7770;52.158;5.372;2023-04-29T02:41:26;9.70;99.90
15341;DHT22;7770;52.158;5.372;2023-04-29T02:44:12;9.60;99.90
15341;DHT22;7770;52.158;5.372;2023-04-29T02:46:58;9.70;99.90
15341;DHT22;7770;52.158;5.372;2023-04-29T02:49:44;9.70;99.90
15341;DHT22;7770;52.158;5.372;2023-04-29T02:52:30;9.70;99.90
15341;DHT22;7770;52.158;5.372;2023-04-29T02:55:16;9.70;99.90
15341;DHT22;7770;52.158;5.372;2023-04-29T02:58:03;9.70;99.90
15341;DHT22;7770;52.158;5.372;2023-04-29T03:00:49;9.70;99.90
15341;DHT22;7770;52.158;5.372;2023-04-29T03:03:35;9.70;99.90
15341;DHT22;7770;52.158;5.372;2023-04-29T03:06:21;9.70;99.90
15341;DHT22;7770;52.158;5.372;2023-04-29T03:09:07;9.70;99.90
15341;DHT22;7770;52.158;5.372;2023-04-29T03:11:53;9.70;99.90
15341;DHT22;7770;52.158;5.372;2023-04-29T03:14:39;9.60;99.90
15341;DHT22;7770;52.158;5.372;2023-04-29T03:17:25;9.60;99.90
15341;DHT22;7770;52.158;5.372;2023-04-29T03:20:12;9.60;99.90
15341;DHT22;7770;52.158;5.372;2023-04-29T03:22:58;9.50;99.90
15341;DHT22;7770;52.158;5.372;2023-04-29T03:25:45;9.60;99.90
15341;DHT22;7770;52.158;5.372;2023-04-29T03:28:31;9.60;99.90
15341;DHT22;7770;52.158;5.372;2023-04-29T03:31:17;9.60;99.90
15341;DHT22;7770;52.158;5.372;2023-04-29T03:34:05;9.60;99.90
15341;DHT22;7770;52.158;5.372;2023-04-29T03:36:51;9.60;99.90
15341;DHT22;7770;52.158;5.372;2023-04-29T03:39:37;9.70;99.90
15341;DHT22;7770;52.158;5.372;2023-04-29T03:42:23;9.70;99.90
15341;DHT22;7770;52.158;5.372;2023-04-29T03:45:10;9.70;99.90
15341;DHT22;7770;52.158;5.372;2023-04-29T03:47:58;9.70;99.90
15341;DHT22;7770;52.158;5.372;2023-04-29T03:50:45;9.60;99.90
15341;DHT22;7770;52.158;5.372;2023-04-29T03:53:31;9.60;99.90
15341;DHT22;7770;52.158;5.372;2023-04-29T03:56:17;9.70;99.90
15341;DHT22;7770;52.158;5.372;2023-04-29T03:59:03;9.60;99.90
15341;DHT22;7770;52.158;5.372;2023-04-29T04:01:49;9.60;99.90
15341;DHT22;7770;52.158;5.372;2023-04-29T04:04:36;9.60;99.90
15341;DHT22;7770;52.158;5.372;2023-04-29T04:07:22;9.60;99.90
15341;DHT22;7770;52.158;5.372;2023-04-29T04:10:08;9.70;99.90
15341;DHT22;7770;52.158;5.372;2023-04-29T04:12:54;9.60;99.90
15341;DHT22;7770;52.158;5.372;2023-04-29T04:15:41;9.60;99.90
15341;DHT22;7770;52.158;5.372;2023-04-29T04:18:27;9.60;99.90
15341;DHT22;7770;52.158;5.372;2023-04-29T04:21:13;9.60;99.90
15341;DHT22;7770;52.158;5.372;2023-04-29T04:23:59;9.60;99.90
15341;DHT22;7770;52.158;5.372;2023-04-29T04:26:45;9.60;99.90
15341;DHT22;7770;52.158;5.372;2023-04-29T04:29:31;9.60;99.90
15341;DHT22;7770;52.158;5.372;2023-04-29T04:32:17;9.60;99.90
15341;DHT22;7770;52.158;5.372;2023-04-29T04:35:03;9.60;99.90
15341;DHT22;7770;52.158;5.372;2023-04-29T04:37:49;9.60;99.90
15341;DHT22;7770;52.158;5.372;2023-04-29T04:40:36;9.60;99.90
15341;DHT22;7770;52.158;5.372;2023-04-29T04:43:22;9.60;99.90
15341;DHT22;7770;52.158;5.372;2023-04-29T04:46:15;9.60;99.90
15341;DHT22;7770;52.158;5.372;2023-04-29T04:49:01;9.60;99.90
15341;DHT22;7770;52.158;5.372;2023-04-29T04:51:47;9.60;99.90
15341;DHT22;7770;52.158;5.372;2023-04-29T04:54:33;9.60;99.90
15341;DHT22;7770;52.158;5.372;2023-04-29T04:57:20;9.70;99.90
15341;DHT22;7770;52.158;5.372;2023-04-29T05:00:06;9.70;99.90
15341;DHT22;7770;52.158;5.372;2023-04-29T05:02:53;9.70;99.90
15341;DHT22;7770;52.158;5.372;2023-04-29T05:05:39;9.80;99.90
15341;DHT22;7770;52.158;5.372;2023-04-29T05:08:25;9.80;99.90
15341;DHT22;7770;52.158;5.372;2023-04-29T05:11:19;9.90;99.90
15341;DHT22;7770;52.158;5.372;2023-04-29T05:14:05;9.90;99.90
15341;DHT22;7770;52.158;5.372;2023-04-29T05:16:51;10.00;99.90
15341;DHT22;7770;52.158;5.372;2023-04-29T05:19:37;10.00;99.90
15341;DHT22;7770;52.158;5.372;2023-04-29T05:22:23;10.10;99.90
15341;DHT22;7770;52.158;5.372;2023-04-29T05:25:09;10.10;99.90
15341;DHT22;7770;52.158;5.372;2023-04-29T05:27:55;10.20;99.90
15341;DHT22;7770;52.158;5.372;2023-04-29T05:30:41;10.20;99.90
15341;DHT22;7770;52.158;5.372;2023-04-29T05:33:28;10.30;99.90
15341;DHT22;7770;52.158;5.372;2023-04-29T05:36:14;10.50;99.90
15341;DHT22;7770;52.158;5.372;2023-04-29T05:39:00;10.70;99.90
15341;DHT22;7770;52.158;5.372;2023-04-29T05:41:46;10.80;99.90
15341;DHT22;7770;52.158;5.372;2023-04-29T05:44:32;10.90;99.90
15341;DHT22;7770;52.158;5.372;2023-04-29T05:47:18;10.80;99.90
15341;DHT22;7770;52.158;5.372;2023-04-29T05:50:04;10.90;99.90
15341;DHT22;7770;52.158;5.372;2023-04-29T05:52:51;11.00;99.90
15341;DHT22;7770;52.158;5.372;2023-04-29T05:55:39;11.10;99.90
15341;DHT22;7770;52.158;5.372;2023-04-29T05:58:25;11.30;99.90
15341;DHT22;7770;52.158;5.372;2023-04-29T06:01:11;11.30;99.90
15341;DHT22;7770;52.158;5.372;2023-04-29T06:03:57;11.30;99.90
15341;DHT22;7770;52.158;5.372;2023-04-29T06:06:43;11.30;99.90
15341;DHT22;7770;52.158;5.372;2023-04-29T06:09:29;11.30;99.90
15341;DHT22;7770;52.158;5.372;2023-04-29T06:12:15;11.30;99.90
15341;DHT22;7770;52.158;5.372;2023-04-29T06:15:01;11.30;99.90
15341;DHT22;7770;52.158;5.372;2023-04-29T06:17:47;11.20;99.90
15341;DHT22;7770;52.158;5.372;2023-04-29T06:20:33;11.20;99.90
15341;DHT22;7770;52.158;5.372;2023-04-29T06:23:19;11.10;99.90
15341;DHT22;7770;52.158;5.372;2023-04-29T06:26:05;11.10;99.90
15341;DHT22;7770;52.158;5.372;2023-04-29T06:28:52;11.10;99.90
15341;DHT22;7770;52.158;5.372;2023-04-29T06:31:38;11.20;99.90
15341;DHT22;7770;52.158;5.372;2023-04-29T06:34:24;11.30;99.90
15341;DHT22;7770;52.158;5.372;2023-04-29T06:37:11;11.30;99.90
15341;DHT22;7770;52.158;5.372;2023-04-29T06:39:57;11.40;99.90
15341;DHT22;7770;52.158;5.372;2023-04-29T06:42:43;11.50;99.90
15341;DHT22;7770;52.158;5.372;2023-04-29T06:45:29;11.60;99.90
15341;DHT22;7770;52.158;5.372;2023-04-29T06:48:15;11.90;99.90
15341;DHT22;7770;52.158;5.372;2023-04-29T06:51:01;12.10;99.90
15341;DHT22;7770;52.158;5.372;2023-04-29T06:53:48;12.10;99.90
15341;DHT22;7770;52.158;5.372;2023-04-29T06:56:34;12.40;99.90
15341;DHT22;7770;52.158;5.372;2023-04-29T06:59:20;12.70;99.90
15341;DHT22;7770;52.158;5.372;2023-04-29T07:02:06;13.00;99.90
15341;DHT22;7770;52.158;5.372;2023-04-29T07:04:52;13.10;99.90
15341;DHT22;7770;52.158;5.372;2023-04-29T07:07:38;13.50;99.90
15341;DHT22;7770;52.158;5.372;2023-04-29T07:10:24;14.40;99.90
15341;DHT22;7770;52.158;5.372;2023-04-29T07:13:12;14.60;99.90
15341;DHT22;7770;52.158;5.372;2023-04-29T07:15:58;14.60;99.90
15341;DHT22;7770;52.158;5.372;2023-04-29T07:18:44;14.50;99.90
15341;DHT22;7770;52.158;5.372;2023-04-29T07:21:30;14.10;99.90
15341;DHT22;7770;52.158;5.372;2023-04-29T07:24:17;13.90;99.90
15341;DHT22;7770;52.158;5.372;2023-04-29T07:27:03;13.80;99.90
15341;DHT22;7770;52.158;5.372;2023-04-29T07:29:49;14.00;99.90
15341;DHT22;7770;52.158;5.372;2023-04-29T07:32:35;14.20;99.90
15341;DHT22;7770;52.158;5.372;2023-04-29T07:35:21;14.70;99.90
15341;DHT22;7770;52.158;5.372;2023-04-29T07:38:07;14.80;99.90
15341;DHT22;7770;52.158;5.372;2023-04-29T07:40:53;15.00;99.90
15341;DHT22;7770;52.158;5.372;2023-04-29T07:43:40;15.40;99.90
15341;DHT22;7770;52.158;5.372;2023-04-29T07:46:26;15.80;99.90
15341;DHT22;7770;52.158;5.372;2023-04-29T07:49:13;15.50;99.90
15341;DHT22;7770;52.158;5.372;2023-04-29T07:51:59;15.20;99.90
15341;DHT22;7770;52.158;5.372;2023-04-29T07:54:45;16.50;99.90
15341;DHT22;7770;52.158;5.372;2023-04-29T07:57:31;18.60;99.90
15341;DHT22;7770;52.158;5.372;2023-04-29T08:00:17;19.80;99.90
15341;DHT22;7770;52.158;5.372;2023-04-29T08:03:03;20.50;99.30
15341;DHT22;7770;52.158;5.372;2023-04-29T08:05:49;20.70;98.90
15341;DHT22;7770;52.158;5.372;2023-04-29T08:08:38;21.20;98.20
15341;DHT22;7770;52.158;5.372;2023-04-29T08:11:24;21.70;97.70
15341;DHT22;7770;52.158;5.372;2023-04-29T08:14:11;21.50;97.60
15341;DHT22;7770;52.158;5.372;2023-04-29T08:16:57;20.00;98.80
15341;DHT22;7770;52.158;5.372;2023-04-29T08:19:43;18.90;99.90
15341;DHT22;7770;52.158;5.372;2023-04-29T08:22:29;17.50;99.90
15341;DHT22;7770;52.158;5.372;2023-04-29T08:25:15;17.00;99.90
15341;DHT22;7770;52.158;5.372;2023-04-29T08:28:01;17.10;99.90
15341;DHT22;7770;52.158;5.372;2023-04-29T08:30:47;18.20;99.90
15341;DHT22;7770;52.158;5.372;2023-04-29T08:33:34;20.10;99.30
15341;DHT22;7770;52.158;5.372;2023-04-29T08:36:20;21.30;97.60
15341;DHT22;7770;52.158;5.372;2023-04-29T08:39:06;20.70;97.80
15341;DHT22;7770;52.158;5.372;2023-04-29T08:41:52;18.90;99.50
15341;DHT22;7770;52.158;5.372;2023-04-29T08:44:39;17.60;99.90
15341;DHT22;7770;52.158;5.372;2023-04-29T08:47:29;17.40;99.90
15341;DHT22;7770;52.158;5.372;2023-04-29T08:50:16;19.20;99.00
15341;DHT22;7770;52.158;5.372;2023-04-29T08:53:03;20.90;96.70
15341;DHT22;7770;52.158;5.372;2023-04-29T08:55:49;21.90;95.40
15341;DHT22;7770;52.158;5.372;2023-04-29T08:58:37;22.10;94.40
15341;DHT22;7770;52.158;5.372;2023-04-29T09:01:28;22.00;93.90
15341;DHT22;7770;52.158;5.372;2023-04-29T09:04:25;21.40;93.60
15341;DHT22;7770;52.158;5.372;2023-04-29T09:07:23;22.20;93.80
15341;DHT22;7770;52.158;5.372;2023-04-29T09:10:09;22.90;94.40
15341;DHT22;7770;52.158;5.372;2023-04-29T09:12:56;23.40;92.00
15341;DHT22;7770;52.158;5.372;2023-04-29T09:15:45;23.70;92.30
15341;DHT22;7770;52.158;5.372;2023-04-29T09:21:31;23.60;92.90
15341;DHT22;7770;52.158;5.372;2023-04-29T09:24:24;22.00;94.60
15341;DHT22;7770;52.158;5.372;2023-04-29T09:27:25;22.00;94.70
15341;DHT22;7770;52.158;5.372;2023-04-29T09:30:12;22.10;94.40
15341;DHT22;7770;52.158;5.372;2023-04-29T09:33:08;20.40;95.60
15341;DHT22;7770;52.158;5.372;2023-04-29T09:35:54;19.20;97.40
15341;DHT22;7770;52.158;5.372;2023-04-29T09:38:53;20.30;97.60
15341;DHT22;7770;52.158;5.372;2023-04-29T09:41:57;21.10;95.90
15341;DHT22;7770;52.158;5.372;2023-04-29T09:44:44;22.40;94.50
15341;DHT22;7770;52.158;5.372;2023-04-29T09:47:30;22.90;93.90
15341;DHT22;7770;52.158;5.372;2023-04-29T09:50:17;23.10;92.90
15341;DHT22;7770;52.158;5.372;2023-04-29T09:53:05;23.10;93.30
15341;DHT22;7770;52.158;5.372;2023-04-29T09:58:47;23.50;93.00
15341;DHT22;7770;52.158;5.372;2023-04-29T10:01:33;22.50;92.80
15341;DHT22;7770;52.158;5.372;2023-04-29T10:04:21;21.90;93.80
15341;DHT22;7770;52.158;5.372;2023-04-29T10:07:13;21.70;93.70
15341;DHT22;7770;52.158;5.372;2023-04-29T10:10:03;21.20;94.20
15341;DHT22;7770;52.158;5.372;2023-04-29T10:12:52;22.30;92.90
15341;DHT22;7770;52.158;5.372;2023-04-29T10:15:46;23.10;92.30
15341;DHT22;7770;52.158;5.372;2023-04-29T10:18:36;22.70;91.20
15341;DHT22;7770;52.158;5.372;2023-04-29T10:21:29;23.20;91.50
15341;DHT22;7770;52.158;5.372;2023-04-29T10:24:17;23.50;91.10
15341;DHT22;7770;52.158;5.372;2023-04-29T10:27:09;24.30;90.40
15341;DHT22;7770;52.158;5.372;2023-04-29T10:30:00;25.30;90.50
15341;DHT22;7770;52.158;5.372;2023-04-29T10:32:48;26.20;89.20
15341;DHT22;7770;52.158;5.372;2023-04-29T10:35:35;25.50;86.10
15341;DHT22;7770;52.158;5.372;2023-04-29T10:38:35;25.50;86.40
15341;DHT22;7770;52.158;5.372;2023-04-29T10:41:32;25.60;87.80
15341;DHT22;7770;52.158;5.372;2023-04-29T10:44:20;26.00;88.20
15341;DHT22;7770;52.158;5.372;2023-04-29T10:47:27;26.30;87.80
15341;DHT22;7770;52.158;5.372;2023-04-29T10:50:13;25.70;85.10
15341;DHT22;7770;52.158;5.372;2023-04-29T10:53:04;23.90;89.70
15341;DHT22;7770;52.158;5.372;2023-04-29T10:55:58;24.50;89.00
15341;DHT22;7770;52.158;5.372;2023-04-29T10:58:48;25.10;88.30
15341;DHT22;7770;52.158;5.372;2023-04-29T11:01:51;23.70;88.10
15341;DHT22;7770;52.158;5.372;2023-04-29T11:05:09;22.60;90.50
15341;DHT22;7770;52.158;5.372;2023-04-29T11:08:09;23.20;90.30
15341;DHT22;7770;52.158;5.372;2023-04-29T11:11:01;23.70;89.80
15341;DHT22;7770;52.158;5.372;2023-04-29T11:13:47;23.10;88.30
15341;DHT22;7770;52.158;5.372;2023-04-29T11:16:34;22.50;91.00
15341;DHT22;7770;52.158;5.372;2023-04-29T11:19:45;23.20;90.30
15341;DHT22;7770;52.158;5.372;2023-04-29T11:22:35;22.50;90.70
15341;DHT22;7770;52.158;5.372;2023-04-29T11:25:24;21.90;91.60
15341;DHT22;7770;52.158;5.372;2023-04-29T11:28:10;22.40;90.80
15341;DHT22;7770;52.158;5.372;2023-04-29T11:30:57;23.90;90.40
15341;DHT22;7770;52.158;5.372;2023-04-29T11:33:45;24.20;88.60
15341;DHT22;7770;52.158;5.372;2023-04-29T11:36:32;22.70;88.60
15341;DHT22;7770;52.158;5.372;2023-04-29T11:39:19;23.10;91.20
15341;DHT22;7770;52.158;5.372;2023-04-29T11:42:06;23.40;89.20
15341;DHT22;7770;52.158;5.372;2023-04-29T11:44:53;24.20;90.20
15341;DHT22;7770;52.158;5.372;2023-04-29T11:47:43;25.70;87.80
15341;DHT22;7770;52.158;5.372;2023-04-29T11:50:32;24.00;90.10
15341;DHT22;7770;52.158;5.372;2023-04-29T11:53:22;24.10;90.40
15341;DHT22;7770;52.158;5.372;2023-04-29T11:56:10;24.40;91.10
15341;DHT22;7770;52.158;5.372;2023-04-29T11:58:57;23.40;90.50
15341;DHT22;7770;52.158;5.372;2023-04-29T12:01:43;22.30;91.70
15341;DHT22;7770;52.158;5.372;2023-04-29T12:04:29;21.90;92.00
15341;DHT22;7770;52.158;5.372;2023-04-29T12:07:15;22.20;91.90
15341;DHT22;7770;52.158;5.372;2023-04-29T12:10:02;22.80;91.80
15341;DHT22;7770;52.158;5.372;2023-04-29T12:12:48;22.60;91.30
15341;DHT22;7770;52.158;5.372;2023-04-29T12:15:34;21.60;92.20
15341;DHT22;7770;52.158;5.372;2023-04-29T12:18:21;21.40;92.40
15341;DHT22;7770;52.158;5.372;2023-04-29T12:21:08;21.40;93.00
15341;DHT22;7770;52.158;5.372;2023-04-29T12:23:58;21.60;93.10
15341;DHT22;7770;52.158;5.372;2023-04-29T12:26:45;22.00;93.00
15341;DHT22;7770;52.158;5.372;2023-04-29T12:29:31;22.10;92.40
15341;DHT22;7770;52.158;5.372;2023-04-29T12:32:21;22.10;92.50
15341;DHT22;7770;52.158;5.372;2023-04-29T12:35:17;21.60;92.60
15341;DHT22;7770;52.158;5.372;2023-04-29T12:38:03;21.50;92.90
15341;DHT22;7770;52.158;5.372;2023-04-29T12:40:49;21.20;92.60
15341;DHT22;7770;52.158;5.372;2023-04-29T12:43:36;21.40;92.70
15341;DHT22;7770;52.158;5.372;2023-04-29T12:46:22;21.20;92.60
15341;DHT22;7770;52.158;5.372;2023-04-29T12:49:08;21.20;92.60
15341;DHT22;7770;52.158;5.372;2023-04-29T12:51:54;21.10;92.70
15341;DHT22;7770;52.158;5.372;2023-04-29T12:54:41;21.10;92.80
15341;DHT22;7770;52.158;5.372;2023-04-29T12:57:28;21.10;92.60
15341;DHT22;7770;52.158;5.372;2023-04-29T13:00:14;20.80;92.90
15341;DHT22;7770;52.158;5.372;2023-04-29T13:03:00;20.50;92.40
15341;DHT22;7770;52.158;5.372;2023-04-29T13:05:46;20.30;93.10
15341;DHT22;7770;52.158;5.372;2023-04-29T13:08:35;20.50;92.40
15341;DHT22;7770;52.158;5.372;2023-04-29T13:11:22;20.40;93.10
15341;DHT22;7770;52.158;5.372;2023-04-29T13:14:08;20.30;92.90
15341;DHT22;7770;52.158;5.372;2023-04-29T13:16:55;20.00;92.80
15341;DHT22;7770;52.158;5.372;2023-04-29T13:19:41;19.80;93.70
15341;DHT22;7770;52.158;5.372;2023-04-29T13:22:29;19.70;94.00
15341;DHT22;7770;52.158;5.372;2023-04-29T13:25:15;19.70;94.00
15341;DHT22;7770;52.158;5.372;2023-04-29T13:28:02;19.80;93.60
15341;DHT22;7770;52.158;5.372;2023-04-29T13:30:49;19.80;93.90
15341;DHT22;7770;52.158;5.372;2023-04-29T13:33:36;19.50;94.30
15341;DHT22;7770;52.158;5.372;2023-04-29T13:36:22;19.50;94.40
15341;DHT22;7770;52.158;5.372;2023-04-29T13:39:09;19.50;94.90
15341;DHT22;7770;52.158;5.372;2023-04-29T13:41:55;19.40;94.60
15341;DHT22;7770;52.158;5.372;2023-04-29T13:44:41;19.30;94.80
15341;DHT22;7770;52.158;5.372;2023-04-29T13:47:30;19.00;94.80
15341;DHT22;7770;52.158;5.372;2023-04-29T13:50:16;18.90;94.80
15341;DHT22;7770;52.158;5.372;2023-04-29T13:53:02;18.60;94.50
15341;DHT22;7770;52.158;5.372;2023-04-29T13:55:48;18.40;94.80
15341;DHT22;7770;52.158;5.372;2023-04-29T13:58:34;18.40;95.10
15341;DHT22;7770;52.158;5.372;2023-04-29T14:01:20;18.50;94.80
15341;DHT22;7770;52.158;5.372;2023-04-29T14:04:07;18.20;95.50
15341;DHT22;7770;52.158;5.372;2023-04-29T14:06:54;18.10;94.90
15341;DHT22;7770;52.158;5.372;2023-04-29T14:09:40;18.10;95.60
15341;DHT22;7770;52.158;5.372;2023-04-29T14:12:26;18.00;95.60
15341;DHT22;7770;52.158;5.372;2023-04-29T14:15:12;18.00;95.20
15341;DHT22;7770;52.158;5.372;2023-04-29T14:17:58;18.00;95.30
15341;DHT22;7770;52.158;5.372;2023-04-29T14:20:44;17.80;95.10
15341;DHT22;7770;52.158;5.372;2023-04-29T14:23:30;17.70;94.90
15341;DHT22;7770;52.158;5.372;2023-04-29T14:26:17;17.70;95.20
15341;DHT22;7770;52.158;5.372;2023-04-29T14:29:03;17.60;95.40
15341;DHT22;7770;52.158;5.372;2023-04-29T14:31:49;17.50;95.40
15341;DHT22;7770;52.158;5.372;2023-04-29T14:34:37;17.40;95.50
15341;DHT22;7770;52.158;5.372;2023-04-29T14:37:23;17.30;96.10
15341;DHT22;7770;52.158;5.372;2023-04-29T14:40:09;17.40;95.40
15341;DHT22;7770;52.158;5.372;2023-04-29T14:42:55;17.40;95.60
15341;DHT22;7770;52.158;5.372;2023-04-29T14:45:41;17.30;95.80
15341;DHT22;7770;52.158;5.372;2023-04-29T14:48:28;17.40;96.20
15341;DHT22;7770;52.158;5.372;2023-04-29T14:51:14;17.30;96.40
15341;DHT22;7770;52.158;5.372;2023-04-29T14:54:00;17.30;95.80
15341;DHT22;7770;52.158;5.372;2023-04-29T14:56:46;17.20;96.10
15341;DHT22;7770;52.158;5.372;2023-04-29T14:59:32;17.20;96.00
15341;DHT22;7770;52.158;5.372;2023-04-29T15:02:18;17.20;95.60
15341;DHT22;7770;52.158;5.372;2023-04-29T15:05:05;17.00;95.70
15341;DHT22;7770;52.158;5.372;2023-04-29T15:07:51;16.80;95.80
15341;DHT22;7770;52.158;5.372;2023-04-29T15:10:37;16.90;96.30
15341;DHT22;7770;52.158;5.372;2023-04-29T15:13:23;16.90;95.40
15341;DHT22;7770;52.158;5.372;2023-04-29T15:16:09;16.90;95.60
15341;DHT22;7770;52.158;5.372;2023-04-29T15:18:55;16.90;96.10
15341;DHT22;7770;52.158;5.372;2023-04-29T15:21:41;17.00;95.60
15341;DHT22;7770;52.158;5.372;2023-04-29T15:24:27;17.00;95.70
15341;DHT22;7770;52.158;5.372;2023-04-29T15:27:13;16.90;95.60
15341;DHT22;7770;52.158;5.372;2023-04-29T15:30:01;16.70;96.00
15341;DHT22;7770;52.158;5.372;2023-04-29T15:32:47;16.70;96.30
15341;DHT22;7770;52.158;5.372;2023-04-29T15:35:33;16.70;96.80
15341;DHT22;7770;52.158;5.372;2023-04-29T15:38:21;16.60;96.50
15341;DHT22;7770;52.158;5.372;2023-04-29T15:41:07;16.60;96.70
15341;DHT22;7770;52.158;5.372;2023-04-29T15:43:53;16.40;96.90
15341;DHT22;7770;52.158;5.372;2023-04-29T15:46:41;16.40;97.10
15341;DHT22;7770;52.158;5.372;2023-04-29T15:49:27;16.40;97.00
15341;DHT22;7770;52.158;5.372;2023-04-29T15:52:13;16.30;97.40
15341;DHT22;7770;52.158;5.372;2023-04-29T15:54:59;16.40;97.40
15341;DHT22;7770;52.158;5.372;2023-04-29T15:57:45;16.40;97.10
15341;DHT22;7770;52.158;5.372;2023-04-29T16:00:31;16.50;97.20
15341;DHT22;7770;52.158;5.372;2023-04-29T16:03:17;16.40;96.90
15341;DHT22;7770;52.158;5.372;2023-04-29T16:06:03;16.20;97.00
15341;DHT22;7770;52.158;5.372;2023-04-29T16:08:49;16.10;97.30
15341;DHT22;7770;52.158;5.372;2023-04-29T16:11:35;16.10;96.90
15341;DHT22;7770;52.158;5.372;2023-04-29T16:14:21;16.10;97.10
15341;DHT22;7770;52.158;5.372;2023-04-29T16:17:07;16.10;97.10
15341;DHT22;7770;52.158;5.372;2023-04-29T16:19:53;16.10;97.20
15341;DHT22;7770;52.158;5.372;2023-04-29T16:22:39;16.00;96.90
15341;DHT22;7770;52.158;5.372;2023-04-29T16:25:25;15.90;95.80
15341;DHT22;7770;52.158;5.372;2023-04-29T16:28:11;15.70;95.80
15341;DHT22;7770;52.158;5.372;2023-04-29T16:30:57;15.60;95.50
15341;DHT22;7770;52.158;5.372;2023-04-29T16:33:43;15.50;94.60
15341;DHT22;7770;52.158;5.372;2023-04-29T16:36:30;15.40;94.50
15341;DHT22;7770;52.158;5.372;2023-04-29T16:39:17;15.20;93.30
15341;DHT22;7770;52.158;5.372;2023-04-29T16:42:03;15.30;93.70
15341;DHT22;7770;52.158;5.372;2023-04-29T16:44:49;15.20;93.40
15341;DHT22;7770;52.158;5.372;2023-04-29T16:47:35;15.10;93.40
15341;DHT22;7770;52.158;5.372;2023-04-29T16:50:22;15.00;93.30
15341;DHT22;7770;52.158;5.372;2023-04-29T16:53:08;15.00;93.20
15341;DHT22;7770;52.158;5.372;2023-04-29T16:55:54;14.90;92.60
15341;DHT22;7770;52.158;5.372;2023-04-29T16:58:40;15.00;92.80
15341;DHT22;7770;52.158;5.372;2023-04-29T17:01:26;14.90;92.60
15341;DHT22;7770;52.158;5.372;2023-04-29T17:04:13;14.90;92.80
15341;DHT22;7770;52.158;5.372;2023-04-29T17:06:59;14.80;92.40
15341;DHT22;7770;52.158;5.372;2023-04-29T17:09:46;14.80;92.60
15341;DHT22;7770;52.158;5.372;2023-04-29T17:12:32;14.70;92.30
15341;DHT22;7770;52.158;5.372;2023-04-29T17:15:18;14.70;91.90
15341;DHT22;7770;52.158;5.372;2023-04-29T17:18:04;14.60;92.50
15341;DHT22;7770;52.158;5.372;2023-04-29T17:20:50;14.60;92.90
15341;DHT22;7770;52.158;5.372;2023-04-29T17:23:36;14.50;92.90
15341;DHT22;7770;52.158;5.372;2023-04-29T17:26:22;14.40;92.40
15341;DHT22;7770;52.158;5.372;2023-04-29T17:29:08;14.20;92.60
15341;DHT22;7770;52.158;5.372;2023-04-29T17:31:56;14.20;92.10
15341;DHT22;7770;52.158;5.372;2023-04-29T17:34:44;14.20;92.30
15341;DHT22;7770;52.158;5.372;2023-04-29T17:37:30;14.10;92.50
15341;DHT22;7770;52.158;5.372;2023-04-29T17:40:16;14.10;92.40
15341;DHT22;7770;52.158;5.372;2023-04-29T17:43:02;14.00;92.40
15341;DHT22;7770;52.158;5.372;2023-04-29T17:45:48;13.80;93.10
15341;DHT22;7770;52.158;5.372;2023-04-29T17:48:34;13.70;93.50
15341;DHT22;7770;52.158;5.372;2023-04-29T17:51:20;13.70;93.80
15341;DHT22;7770;52.158;5.372;2023-04-29T17:54:07;13.60;93.90
15341;DHT22;7770;52.158;5.372;2023-04-29T17:56:53;13.60;93.70
15341;DHT22;7770;52.158;5.372;2023-04-29T17:59:39;13.50;93.70
15341;DHT22;7770;52.158;5.372;2023-04-29T18:02:25;13.40;93.80
15341;DHT22;7770;52.158;5.372;2023-04-29T18:05:11;13.30;94.20
15341;DHT22;7770;52.158;5.372;2023-04-29T18:07:57;13.20;95.10